1918 NOT_NAMED (1918076S17162)


IBTrACS version v04r00. Visit IBTrACS website for data access.
Please direct all questions to the IBTrACS Q and A forum

Storm track - Intensity - Wind Radii - Intensity Data - Source Data - All data

Summary Information

Storm ID 1918076S17162
Start Mar 16 23Z
End Mar 18 23Z
ATCF IDs
Track status Best track data.

Storm track plot

Map of storm track

Intensity plots

No Intensity information for this storm


Radial wind information

No radial wind information for this storm


Position and Intensity Table

BASIN ISO_TIME_________ NATURE LAT LON
degrees north degrees east
SP 1918-03-16 23:00:00 NR -16.90 161.70
SP 1918-03-17 00:00:00 NR -17.07 161.62
SP 03:00:00 NR -17.57 161.37
SP 06:00:00 NR -18.07 161.10
SP 09:00:00 NR -18.57 160.81
SP 11:00:00 NR -18.90 160.60
SP 12:00:00 NR -19.06 160.49
SP 15:00:00 NR -19.55 160.13
SP 18:00:00 NR -20.04 159.78
SP 21:00:00 NR -20.55 159.47
SP 23:00:00 NR -20.90 159.30
SP 1918-03-18 00:00:00 NR -21.08 159.23
SP 03:00:00 NR -21.65 159.06
SP 06:00:00 NR -22.24 158.96
SP 09:00:00 NR -22.82 158.96
SP 11:00:00 NR -23.20 159.00
SP 12:00:00 NR -23.39 159.04
SP 15:00:00 NR -23.93 159.20
SP 18:00:00 NR -24.45 159.44
SP 21:00:00 NR -24.96 159.71
SP 23:00:00 NR -25.30 159.90

Source Information

Agency Information
USA
TOKYO
CMA
HKO
NEWDELHI
REUNION
BOM
NADI
WELLINGTON
DS824
TD9636 cons_worldwide_trop_cyclone_18710101-19891231-006:Line=1037
TD9635
NEUMANN
MLC

All available IBTrACS Data

SEASON BASIN SUBBASIN ISO_TIME_________ NATURE LAT LON DIST2LAND LANDFALL IFLAG USA SSHS TD9636 LAT TD9636 LON TD9636 STAGE STORM SPEED STORM DIR
Year degrees north degrees east km km 1 degrees north degrees east kts degrees
1918 SP MM 1918-03-16 23:00:00 NR -16.90 161.70 447 438 __________O___ -1 -16.90 161.70 7 11 205
1918 SP MM 1918-03-17 00:00:00 NR -17.07 161.62 435 414 __________P___ -1 -17.07 161.62 7 11 205
1918 SP MM 03:00:00 NR -17.57 161.37 406 390 __________P___ -1 -17.57 161.37 7 11 206
1918 SP MM 06:00:00 NR -18.07 161.10 391 382 __________P___ -1 -18.07 161.10 7 11 208
1918 SP MM 09:00:00 NR -18.57 160.81 385 380 __________P___ -1 -18.57 160.81 7 12 210
1918 SP MM 11:00:00 NR -18.90 160.60 389 384 __________O___ -1 -18.90 160.60 7 12 212
1918 SP MM 12:00:00 NR -19.06 160.49 390 390 __________P___ -1 -19.06 160.49 7 12 214
1918 SP MM 15:00:00 NR -19.55 160.13 415 415 __________P___ -1 -19.55 160.13 7 12 214
1918 SP EA 18:00:00 NR -20.04 159.78 439 438 __________P___ -1 -20.04 159.78 7 12 212
1918 SP EA 21:00:00 NR -20.55 159.47 469 469 __________P___ -1 -20.55 159.47 7 12 208
1918 SP EA 23:00:00 NR -20.90 159.30 493 493 __________O___ -1 -20.90 159.30 7 12 203
1918 SP EA 1918-03-18 00:00:00 NR -21.08 159.23 507 507 __________P___ -1 -21.08 159.23 7 12 197
1918 SP EA 03:00:00 NR -21.65 159.06 532 532 __________P___ -1 -21.65 159.06 7 12 192
1918 SP EA 06:00:00 NR -22.24 158.96 559 559 __________P___ -1 -22.24 158.96 7 12 185
1918 SP EA 09:00:00 NR -22.82 158.96 587 587 __________P___ -1 -22.82 158.96 7 12 178
1918 SP EA 11:00:00 NR -23.20 159.00 602 595 __________O___ -1 -23.20 159.00 7 11 172
1918 SP EA 12:00:00 NR -23.39 159.04 595 592 __________P___ -1 -23.39 159.04 7 11 166
1918 SP EA 15:00:00 NR -23.93 159.20 599 596 __________P___ -1 -23.93 159.20 7 11 161
1918 SP EA 18:00:00 NR -24.45 159.44 608 608 __________P___ -1 -24.45 159.44 7 11 156
1918 SP EA 21:00:00 NR -24.96 159.71 634 634 __________P___ -1 -24.96 159.71 7 11 154
1918 SP EA 23:00:00 NR -25.30 159.90 654 __________O___ -1 -25.30 159.90 7 11 153